Time;durP1;ratioP1;P1;durP2;ratioP2;P2;SDS_P1;SDS_P2;PMS_P1;PMS_P2;Temp;Humidity;BMP_temperature;BMP_pressure;BME280_temperature;BME280_humidity;BME280_pressure;Samples;Min_cycle;Max_cycle;Signal;HPM_P1;HPM_P2
2024/01/31 00:01:51;;;;;;;12.82;10.18;;;;;;;;;;4967493;28;25113;-66
2024/01/31 00:04:17;;;;;;;14.38;10.30;;;;;;;;;;4979795;28;25106;-66
2024/01/31 00:06:48;;;;;;;11.77;8.77;;;;;;;;;;4968262;28;25089;-66
2024/01/31 00:09:14;;;;;;;9.95;9.02;;;;;;;;;;4968156;28;25053;-65
2024/01/31 00:11:40;;;;;;;12.00;8.45;;;;;;;;;;4969276;28;25073;-65
2024/01/31 00:14:07;;;;;;;11.05;8.30;;;;;;;;;;4970182;28;25059;-65
2024/01/31 00:16:33;;;;;;;14.88;8.10;;;;;;;;;;4969270;28;25131;-65
2024/01/31 00:18:59;;;;;;;10.05;8.40;;;;;;;;;;4982698;28;25060;-66
2024/01/31 00:21:25;;;;;;;9.70;8.00;;;;;;;;;;4970010;28;25048;-65
2024/01/31 00:23:51;;;;;;;12.15;9.10;;;;;;;;;;4969036;28;25151;-66
2024/01/31 00:26:17;;;;;;;12.32;9.00;;;;;;;;;;4973319;28;25136;-66
2024/01/31 00:28:43;;;;;;;10.38;8.85;;;;;;;;;;4967815;28;25141;-65
2024/01/31 00:31:12;;;;;;;13.35;8.07;;;;;;;;;;4969601;28;25070;-66
2024/01/31 00:33:39;;;;;;;15.48;8.90;;;;;;;;;;4968661;28;25074;-65
2024/01/31 00:36:05;;;;;;;16.50;9.15;;;;;;;;;;4970216;28;25063;-66
2024/01/31 00:38:31;;;;;;;13.13;9.57;;;;;;;;;;4968423;28;25139;-65
2024/01/31 00:40:57;;;;;;;10.50;9.43;;;;;;;;;;4968718;28;25061;-65
2024/01/31 00:43:23;;;;;;;14.18;10.65;;;;;;;;;;4969025;28;25096;-66
2024/01/31 00:45:49;;;;;;;11.00;9.48;;;;;;;;;;4967809;28;25080;-66
2024/01/31 00:48:15;;;;;;;11.55;9.60;;;;;;;;;;4954712;28;25140;-66
2024/01/31 00:50:41;;;;;;;10.00;9.20;;;;;;;;;;4963485;28;25067;-66
2024/01/31 00:53:07;;;;;;;14.00;9.80;;;;;;;;;;4978900;28;25055;-67
2024/01/31 00:55:33;;;;;;;10.73;9.63;;;;;;;;;;4971113;28;25052;-66
2024/01/31 00:58:00;;;;;;;14.57;9.45;;;;;;;;;;4968849;28;25118;-65
2024/01/31 01:00:26;;;;;;;16.27;9.48;;;;;;;;;;4971884;28;25099;-67
2024/01/31 01:02:52;;;;;;;12.23;8.57;;;;;;;;;;4970557;28;25046;-65
2024/01/31 01:05:20;;;;;;;8.43;7.40;;;;;;;;;;4967882;28;25082;-65
2024/01/31 01:07:46;;;;;;;13.60;8.20;;;;;;;;;;4971905;28;25074;-65
2024/01/31 01:10:15;;;;;;;8.82;7.95;;;;;;;;;;4964809;28;25091;-65
2024/01/31 01:12:42;;;;;;;10.05;8.60;;;;;;;;;;4968158;28;25072;-64
2024/01/31 01:15:11;;;;;;;9.30;8.32;;;;;;;;;;4975296;28;25068;-64
2024/01/31 01:17:38;;;;;;;10.88;8.38;;;;;;;;;;4965559;28;25097;-66
2024/01/31 01:20:08;;;;;;;11.80;7.53;;;;;;;;;;4967052;28;25077;-66
2024/01/31 01:22:34;;;;;;;11.93;8.00;;;;;;;;;;4968308;28;25133;-65
2024/01/31 01:25:00;;;;;;;13.20;8.30;;;;;;;;;;4966308;28;25067;-64
2024/01/31 01:27:26;;;;;;;14.30;8.70;;;;;;;;;;4967030;28;25050;-64
2024/01/31 01:29:53;;;;;;;9.70;8.93;;;;;;;;;;4972264;28;25127;-64
2024/01/31 01:32:19;;;;;;;10.98;8.95;;;;;;;;;;4967054;28;25076;-64
2024/01/31 01:34:46;;;;;;;11.20;9.73;;;;;;;;;;4981154;28;25065;-65
2024/01/31 01:37:12;;;;;;;10.85;9.95;;;;;;;;;;4967012;28;25053;-64
2024/01/31 01:39:39;;;;;;;11.05;9.90;;;;;;;;;;4971935;28;25051;-64
2024/01/31 01:42:05;;;;;;;13.77;9.70;;;;;;;;;;4967872;28;25056;-65
2024/01/31 01:44:33;;;;;;;11.18;10.15;;;;;;;;;;4988327;28;25086;-64
2024/01/31 01:47:01;;;;;;;11.68;9.88;;;;;;;;;;4962886;28;25065;-65
2024/01/31 01:49:27;;;;;;;12.55;10.30;;;;;;;;;;4967557;28;25050;-64
2024/01/31 01:51:54;;;;;;;12.00;10.75;;;;;;;;;;4967393;28;25131;-65
2024/01/31 01:54:20;;;;;;;11.50;10.70;;;;;;;;;;4963443;28;25072;-64
2024/01/31 01:56:47;;;;;;;12.13;10.43;;;;;;;;;;4974511;28;25066;-65
2024/01/31 01:59:14;;;;;;;11.63;10.57;;;;;;;;;;4968483;28;25168;-65
2024/01/31 02:01:41;;;;;;;14.95;10.82;;;;;;;;;;4967889;28;25096;-64
2024/01/31 02:04:08;;;;;;;10.52;9.63;;;;;;;;;;4964592;28;25142;-64
2024/01/31 02:06:35;;;;;;;13.93;10.88;;;;;;;;;;4967381;28;25071;-67
2024/01/31 02:09:01;;;;;;;12.82;10.20;;;;;;;;;;4950751;28;25077;-64
2024/01/31 02:11:27;;;;;;;11.90;10.55;;;;;;;;;;4961474;28;25058;-65
2024/01/31 02:13:53;;;;;;;12.75;10.63;;;;;;;;;;4972696;28;25126;-64
2024/01/31 02:16:19;;;;;;;11.00;10.10;;;;;;;;;;4984061;28;25071;-64
2024/01/31 02:18:45;;;;;;;10.60;9.75;;;;;;;;;;4997124;28;25098;-65
2024/01/31 02:21:10;;;;;;;11.80;10.20;;;;;;;;;;4970161;28;25076;-66
2024/01/31 02:23:36;;;;;;;10.85;9.90;;;;;;;;;;4971032;28;25070;-65
2024/01/31 02:26:02;;;;;;;11.55;10.38;;;;;;;;;;4968682;28;25048;-65
2024/01/31 02:28:28;;;;;;;10.45;9.52;;;;;;;;;;4968246;28;25147;-66
2024/01/31 02:30:54;;;;;;;13.15;11.00;;;;;;;;;;4971883;28;25056;-65
2024/01/31 02:33:20;;;;;;;13.05;10.65;;;;;;;;;;4967404;28;25132;-64
2024/01/31 02:35:46;;;;;;;10.68;9.75;;;;;;;;;;4964817;28;25059;-65
2024/01/31 02:38:12;;;;;;;11.82;10.40;;;;;;;;;;4967952;28;25064;-65
2024/01/31 02:40:38;;;;;;;11.68;10.32;;;;;;;;;;4967071;28;25055;-65
2024/01/31 02:43:04;;;;;;;15.93;10.30;;;;;;;;;;4963032;28;25079;-65
2024/01/31 02:45:30;;;;;;;11.85;10.65;;;;;;;;;;4972017;28;25116;-65
2024/01/31 02:47:56;;;;;;;12.23;10.82;;;;;;;;;;4971932;28;25100;-65
2024/01/31 02:50:25;;;;;;;13.88;11.45;;;;;;;;;;4971004;28;25175;-65
2024/01/31 02:52:51;;;;;;;11.98;10.77;;;;;;;;;;4971672;28;25108;-64
2024/01/31 02:55:17;;;;;;;14.52;11.70;;;;;;;;;;4970918;28;25156;-64
2024/01/31 02:57:43;;;;;;;18.42;11.50;;;;;;;;;;4975469;28;25124;-65
2024/01/31 03:00:11;;;;;;;12.73;11.00;;;;;;;;;;4974390;28;25053;-65
2024/01/31 03:02:38;;;;;;;15.30;11.88;;;;;;;;;;4970288;28;25067;-65
2024/01/31 03:05:04;;;;;;;14.48;12.07;;;;;;;;;;4965829;28;25088;-65
2024/01/31 03:07:29;;;;;;;16.00;12.00;;;;;;;;;;4969814;28;25105;-65
2024/01/31 03:09:55;;;;;;;15.95;11.90;;;;;;;;;;4971866;28;25180;-64
2024/01/31 03:12:21;;;;;;;18.27;12.77;;;;;;;;;;4968930;28;25081;-65
2024/01/31 03:14:47;;;;;;;16.05;14.43;;;;;;;;;;4968512;28;25129;-65
2024/01/31 03:17:13;;;;;;;22.73;15.90;;;;;;;;;;4966773;28;25089;-65
2024/01/31 03:19:40;;;;;;;17.98;15.10;;;;;;;;;;4966315;28;25067;-65
2024/01/31 03:22:06;;;;;;;20.45;16.98;;;;;;;;;;4968857;28;25095;-65
2024/01/31 03:24:32;;;;;;;22.35;18.40;;;;;;;;;;4967550;28;25062;-66
2024/01/31 03:26:58;;;;;;;20.00;17.90;;;;;;;;;;4966258;28;25207;-66
2024/01/31 03:29:24;;;;;;;25.58;17.17;;;;;;;;;;4964962;28;25156;-66
2024/01/31 03:31:50;;;;;;;24.45;20.08;;;;;;;;;;4965315;28;25148;-65
2024/01/31 03:34:17;;;;;;;25.77;19.65;;;;;;;;;;4974136;28;25058;-65
2024/01/31 03:36:43;;;;;;;26.13;21.05;;;;;;;;;;4968518;28;25142;-64
2024/01/31 03:39:09;;;;;;;23.20;19.90;;;;;;;;;;4966651;28;25053;-65
2024/01/31 03:41:35;;;;;;;26.35;20.30;;;;;;;;;;4966239;28;25085;-66
2024/01/31 03:44:02;;;;;;;25.45;20.90;;;;;;;;;;4965882;28;25057;-64
2024/01/31 03:46:27;;;;;;;22.88;20.52;;;;;;;;;;4962725;28;25077;-65
2024/01/31 03:48:53;;;;;;;28.17;21.33;;;;;;;;;;4946009;28;25123;-64
2024/01/31 03:51:23;;;;;;;25.08;19.58;;;;;;;;;;4967217;28;25071;-64
2024/01/31 03:53:49;;;;;;;24.20;20.85;;;;;;;;;;4968717;28;25052;-65
2024/01/31 03:56:15;;;;;;;27.45;20.25;;;;;;;;;;4970238;28;25078;-64
2024/01/31 03:58:42;;;;;;;29.55;22.45;;;;;;;;;;4970017;28;25129;-64
2024/01/31 04:01:08;;;;;;;33.10;23.05;;;;;;;;;;4971328;28;25072;-64
2024/01/31 04:03:34;;;;;;;25.23;21.08;;;;;;;;;;4966988;28;25148;-65
2024/01/31 04:06:00;;;;;;;29.75;22.58;;;;;;;;;;4968374;28;25067;-65
2024/01/31 04:08:26;;;;;;;24.92;19.67;;;;;;;;;;4964845;28;25080;-65
2024/01/31 04:10:52;;;;;;;27.17;21.02;;;;;;;;;;4965094;28;25079;-64
2024/01/31 04:13:21;;;;;;;24.05;21.08;;;;;;;;;;4957585;28;25079;-65
2024/01/31 04:15:47;;;;;;;23.50;21.17;;;;;;;;;;4942317;28;25153;-65
2024/01/31 04:18:13;;;;;;;30.45;21.88;;;;;;;;;;4964758;28;25160;-65
2024/01/31 04:20:39;;;;;;;33.28;21.48;;;;;;;;;;4961971;28;25149;-65
2024/01/31 04:23:06;;;;;;;24.98;20.80;;;;;;;;;;4963353;28;25066;-65
2024/01/31 04:25:32;;;;;;;27.45;22.17;;;;;;;;;;4967422;28;25149;-65
2024/01/31 04:27:58;;;;;;;24.60;20.63;;;;;;;;;;4965716;28;25146;-65
2024/01/31 04:30:24;;;;;;;32.53;20.27;;;;;;;;;;4964370;28;25068;-64
2024/01/31 04:32:50;;;;;;;26.70;19.83;;;;;;;;;;4971319;28;25129;-66
2024/01/31 04:35:16;;;;;;;22.85;18.15;;;;;;;;;;4972799;28;25086;-64
2024/01/31 04:37:42;;;;;;;25.27;19.33;;;;;;;;;;4973251;28;25175;-65
2024/01/31 04:40:08;;;;;;;25.35;17.38;;;;;;;;;;4965348;28;25066;-64
2024/01/31 04:42:34;;;;;;;21.08;18.08;;;;;;;;;;4963702;28;25154;-65
2024/01/31 04:45:00;;;;;;;24.38;17.10;;;;;;;;;;4966766;28;25109;-67
2024/01/31 04:47:26;;;;;;;19.45;17.05;;;;;;;;;;4966612;28;25078;-65
2024/01/31 04:49:53;;;;;;;15.80;13.27;;;;;;;;;;4964191;28;25102;-64
2024/01/31 04:52:19;;;;;;;15.88;12.88;;;;;;;;;;4964182;28;25077;-65
2024/01/31 04:54:45;;;;;;;16.38;14.60;;;;;;;;;;4966223;28;25088;-65
2024/01/31 04:57:11;;;;;;;18.50;14.68;;;;;;;;;;4970862;28;25091;-64
2024/01/31 04:59:38;;;;;;;16.75;13.85;;;;;;;;;;4969186;28;25124;-65
2024/01/31 05:02:04;;;;;;;20.77;15.15;;;;;;;;;;4964994;28;25152;-65
2024/01/31 05:04:30;;;;;;;16.23;13.55;;;;;;;;;;4968954;28;25123;-66
2024/01/31 05:06:55;;;;;;;18.23;13.93;;;;;;;;;;4971714;28;25077;-65
2024/01/31 05:09:21;;;;;;;15.27;13.68;;;;;;;;;;4968861;28;25120;-65
2024/01/31 05:11:51;;;;;;;15.43;12.52;;;;;;;;;;4970584;28;25203;-65
2024/01/31 05:14:17;;;;;;;15.38;11.95;;;;;;;;;;4968539;28;25153;-65
2024/01/31 05:16:43;;;;;;;16.67;12.98;;;;;;;;;;4972500;28;25066;-63
2024/01/31 05:19:12;;;;;;;17.73;12.60;;;;;;;;;;4969882;28;25125;-64
2024/01/31 05:21:52;;;;;;;19.58;11.77;;;;;;;;;;4970515;28;25087;-64
2024/01/31 05:24:18;;;;;;;14.90;10.23;;;;;;;;;;4966896;28;25074;-64
2024/01/31 05:26:47;;;;;;;16.25;10.50;;;;;;;;;;4970720;28;25081;-64
2024/01/31 05:29:13;;;;;;;14.35;9.05;;;;;;;;;;4969106;28;25045;-65
2024/01/31 05:31:39;;;;;;;11.90;9.63;;;;;;;;;;4971414;28;25043;-66
2024/01/31 05:34:05;;;;;;;15.70;9.30;;;;;;;;;;4971282;28;25170;-65
2024/01/31 05:36:31;;;;;;;10.55;7.85;;;;;;;;;;4966306;28;25088;-63
2024/01/31 05:38:57;;;;;;;9.13;6.65;;;;;;;;;;4967884;28;25159;-64
2024/01/31 05:41:23;;;;;;;10.27;5.88;;;;;;;;;;4970993;28;25119;-64
2024/01/31 05:43:49;;;;;;;14.88;7.70;;;;;;;;;;4971345;28;25086;-64
2024/01/31 05:46:17;;;;;;;12.63;6.60;;;;;;;;;;4968339;28;25073;-65
2024/01/31 05:48:43;;;;;;;12.23;6.32;;;;;;;;;;4972451;28;25052;-66
2024/01/31 05:51:10;;;;;;;10.23;6.25;;;;;;;;;;4967923;28;25136;-64
2024/01/31 05:53:36;;;;;;;9.32;6.15;;;;;;;;;;4971343;28;25079;-65
2024/01/31 05:56:03;;;;;;;11.35;6.40;;;;;;;;;;4972493;28;25052;-66
2024/01/31 05:58:29;;;;;;;14.50;6.60;;;;;;;;;;4964710;28;25056;-64
2024/01/31 06:00:55;;;;;;;7.95;6.65;;;;;;;;;;4969662;28;25084;-64
2024/01/31 06:03:23;;;;;;;8.15;4.60;;;;;;;;;;4947555;28;25113;-64
2024/01/31 06:05:49;;;;;;;6.95;4.90;;;;;;;;;;4947497;28;25066;-64
2024/01/31 06:08:15;;;;;;;11.73;5.45;;;;;;;;;;4956764;28;25076;-64
2024/01/31 06:10:41;;;;;;;11.20;5.68;;;;;;;;;;4967574;28;25067;-66
2024/01/31 06:13:07;;;;;;;7.32;5.43;;;;;;;;;;4965960;28;25056;-64
2024/01/31 06:15:34;;;;;;;8.70;4.25;;;;;;;;;;4967260;28;25053;-65
2024/01/31 06:18:01;;;;;;;10.00;4.88;;;;;;;;;;4965087;28;25084;-66
2024/01/31 06:20:27;;;;;;;10.50;5.25;;;;;;;;;;4969836;28;25111;-63
2024/01/31 06:22:53;;;;;;;7.10;4.40;;;;;;;;;;4965857;28;25075;-64
2024/01/31 06:25:19;;;;;;;9.25;5.60;;;;;;;;;;4963356;28;25057;-64
2024/01/31 06:27:47;;;;;;;13.32;5.53;;;;;;;;;;4965823;28;25091;-64
2024/01/31 06:30:20;;;;;;;16.08;5.47;;;;;;;;;;4966218;28;25087;-65
2024/01/31 06:32:50;;;;;;;13.30;6.15;;;;;;;;;;4965935;28;25050;-65
2024/01/31 06:35:16;;;;;;;11.45;5.97;;;;;;;;;;4960180;28;25075;-65
2024/01/31 06:37:42;;;;;;;10.77;5.22;;;;;;;;;;4967085;28;25054;-65
2024/01/31 06:40:08;;;;;;;10.75;5.95;;;;;;;;;;4964165;28;25068;-66
2024/01/31 06:42:34;;;;;;;8.00;4.55;;;;;;;;;;4966761;28;25141;-64
2024/01/31 06:45:00;;;;;;;7.13;4.07;;;;;;;;;;4966276;28;25152;-64
2024/01/31 06:47:26;;;;;;;11.02;5.13;;;;;;;;;;4964937;28;25071;-65
2024/01/31 06:49:52;;;;;;;6.97;4.57;;;;;;;;;;4969105;28;25127;-65
2024/01/31 06:52:20;;;;;;;8.13;5.25;;;;;;;;;;4966340;28;25056;-64
2024/01/31 06:54:46;;;;;;;8.95;4.57;;;;;;;;;;4965618;28;25063;-65
2024/01/31 06:57:12;;;;;;;9.95;4.78;;;;;;;;;;4970682;28;25061;-66
2024/01/31 06:59:38;;;;;;;6.97;3.80;;;;;;;;;;4981126;28;25073;-65
2024/01/31 07:02:04;;;;;;;9.93;4.70;;;;;;;;;;4966147;28;25087;-66
2024/01/31 07:04:30;;;;;;;7.63;4.35;;;;;;;;;;4944929;28;25095;-64
2024/01/31 07:06:56;;;;;;;8.40;4.30;;;;;;;;;;4949124;28;25056;-63
2024/01/31 07:09:22;;;;;;;7.90;4.05;;;;;;;;;;4967422;28;25058;-65
2024/01/31 07:11:48;;;;;;;8.18;4.55;;;;;;;;;;4969413;28;25114;-62
2024/01/31 07:14:14;;;;;;;9.80;4.22;;;;;;;;;;4970008;28;25055;-65
2024/01/31 07:16:40;;;;;;;8.75;4.78;;;;;;;;;;4984787;28;25094;-65
2024/01/31 07:19:06;;;;;;;9.43;5.70;;;;;;;;;;4966317;28;25169;-65
2024/01/31 07:21:32;;;;;;;5.88;4.53;;;;;;;;;;4971285;28;25065;-64
2024/01/31 07:23:58;;;;;;;9.20;5.90;;;;;;;;;;4974542;28;25110;-65
2024/01/31 07:26:26;;;;;;;10.00;6.07;;;;;;;;;;4974744;28;25063;-64
2024/01/31 07:28:52;;;;;;;9.50;5.88;;;;;;;;;;4973854;28;25060;-65
2024/01/31 07:31:18;;;;;;;13.65;6.10;;;;;;;;;;4965458;28;25077;-64
2024/01/31 07:33:45;;;;;;;6.70;5.78;;;;;;;;;;4970336;28;25060;-65
2024/01/31 07:36:11;;;;;;;10.73;7.18;;;;;;;;;;4971427;28;25153;-65
2024/01/31 07:38:37;;;;;;;11.05;6.95;;;;;;;;;;4970430;28;25057;-66
2024/01/31 07:41:03;;;;;;;11.75;7.15;;;;;;;;;;4965176;28;25085;-64
2024/01/31 07:43:29;;;;;;;9.18;6.97;;;;;;;;;;4969173;28;25069;-64
2024/01/31 07:45:55;;;;;;;10.10;7.20;;;;;;;;;;4967230;28;25095;-63
2024/01/31 07:48:21;;;;;;;12.32;7.30;;;;;;;;;;4965214;28;25111;-65
2024/01/31 07:50:47;;;;;;;9.48;7.45;;;;;;;;;;4964418;28;25125;-64
2024/01/31 07:53:13;;;;;;;10.60;8.75;;;;;;;;;;4965260;28;25114;-64
2024/01/31 07:55:39;;;;;;;11.38;7.50;;;;;;;;;;4970220;28;25064;-64
2024/01/31 07:58:05;;;;;;;14.15;8.10;;;;;;;;;;4967215;28;25079;-63
2024/01/31 08:00:31;;;;;;;12.02;7.88;;;;;;;;;;4974490;28;25071;-66
2024/01/31 08:02:57;;;;;;;12.48;8.48;;;;;;;;;;4966411;28;25059;-65
2024/01/31 08:05:23;;;;;;;12.25;9.05;;;;;;;;;;4968317;28;25064;-67
2024/01/31 08:07:48;;;;;;;11.32;8.77;;;;;;;;;;4966917;28;25057;-65
2024/01/31 08:10:14;;;;;;;11.40;8.05;;;;;;;;;;4966332;28;25055;-66
2024/01/31 08:12:41;;;;;;;13.35;8.85;;;;;;;;;;4967007;28;25083;-66
2024/01/31 08:15:08;;;;;;;11.73;8.27;;;;;;;;;;4968409;28;25150;-67
2024/01/31 08:17:34;;;;;;;9.07;8.07;;;;;;;;;;4966934;28;25157;-67
2024/01/31 08:20:00;;;;;;;14.50;9.07;;;;;;;;;;4967322;28;25050;-65
2024/01/31 08:22:26;;;;;;;16.73;10.02;;;;;;;;;;4959697;28;25094;-65
2024/01/31 08:24:52;;;;;;;15.93;10.90;;;;;;;;;;4950267;28;25110;-65
2024/01/31 08:27:18;;;;;;;20.30;13.68;;;;;;;;;;4948067;28;25054;-66
2024/01/31 08:29:47;;;;;;;17.63;12.80;;;;;;;;;;4952947;28;25054;-66
2024/01/31 08:32:13;;;;;;;21.55;14.18;;;;;;;;;;4965331;28;25063;-66
2024/01/31 08:34:39;;;;;;;26.70;13.77;;;;;;;;;;4975568;28;25136;-67
2024/01/31 08:37:04;;;;;;;27.00;13.82;;;;;;;;;;4978080;28;25049;-67
2024/01/31 08:39:30;;;;;;;25.67;13.60;;;;;;;;;;4973886;28;25066;-67
2024/01/31 08:41:56;;;;;;;21.90;12.50;;;;;;;;;;4972939;28;25073;-66
2024/01/31 08:44:22;;;;;;;22.15;14.25;;;;;;;;;;4968233;28;25080;-68
2024/01/31 08:46:48;;;;;;;22.40;13.07;;;;;;;;;;4971601;28;25064;-65
2024/01/31 08:49:15;;;;;;;29.00;13.07;;;;;;;;;;4970586;28;25069;-67
2024/01/31 08:51:41;;;;;;;36.67;14.27;;;;;;;;;;4973855;28;25091;-66
2024/01/31 08:54:07;;;;;;;30.63;15.23;;;;;;;;;;4957992;28;25039;-66
2024/01/31 08:56:36;;;;;;;23.40;15.00;;;;;;;;;;4967803;28;25057;-66
2024/01/31 08:59:02;;;;;;;30.75;17.02;;;;;;;;;;4962794;28;25131;-66
2024/01/31 09:01:28;;;;;;;29.20;17.02;;;;;;;;;;4954719;28;25119;-66
2024/01/31 09:03:55;;;;;;;37.88;19.00;;;;;;;;;;4971870;28;25080;-66
2024/01/31 09:06:21;;;;;;;36.65;20.05;;;;;;;;;;4969915;28;25157;-65
2024/01/31 09:08:47;;;;;;;39.45;20.63;;;;;;;;;;4972155;28;25096;-67
2024/01/31 09:11:13;;;;;;;36.78;20.30;;;;;;;;;;4969601;28;25131;-67
2024/01/31 09:13:39;;;;;;;39.67;21.00;;;;;;;;;;4969094;28;25078;-65
2024/01/31 09:16:05;;;;;;;35.70;20.38;;;;;;;;;;4972771;28;25127;-65
2024/01/31 09:18:31;;;;;;;40.58;21.35;;;;;;;;;;4982235;28;25103;-69
2024/01/31 09:20:57;;;;;;;34.92;20.95;;;;;;;;;;4978401;28;25095;-67
2024/01/31 09:23:23;;;;;;;37.17;20.98;;;;;;;;;;4973706;28;25073;-66
2024/01/31 09:25:51;;;;;;;37.28;20.45;;;;;;;;;;4973042;28;25056;-66
2024/01/31 09:28:17;;;;;;;38.83;20.17;;;;;;;;;;4973196;28;25143;-67
2024/01/31 09:30:44;;;;;;;38.58;19.95;;;;;;;;;;4970404;28;25104;-67
2024/01/31 09:33:10;;;;;;;34.45;17.92;;;;;;;;;;4967299;28;25075;-66
2024/01/31 09:35:36;;;;;;;33.53;19.67;;;;;;;;;;4968283;28;25148;-64
2024/01/31 09:38:02;;;;;;;45.42;20.25;;;;;;;;;;4965242;28;25130;-64
2024/01/31 09:40:29;;;;;;;33.53;18.02;;;;;;;;;;4949032;28;24846;-66
2024/01/31 09:42:55;;;;;;;38.13;20.20;;;;;;;;;;4966888;28;25110;-65
2024/01/31 09:45:22;;;;;;;33.55;19.30;;;;;;;;;;4968637;28;25067;-65
2024/01/31 09:47:49;;;;;;;40.30;20.95;;;;;;;;;;4968675;28;25055;-66
2024/01/31 09:50:15;;;;;;;41.25;20.02;;;;;;;;;;4967516;28;25110;-68
2024/01/31 09:52:42;;;;;;;39.17;21.65;;;;;;;;;;4987528;28;25101;-66
2024/01/31 09:55:11;;;;;;;39.72;22.45;;;;;;;;;;4968407;28;25053;-66
2024/01/31 09:57:39;;;;;;;39.60;21.27;;;;;;;;;;4966480;28;25137;-66
2024/01/31 10:00:05;;;;;;;41.92;22.83;;;;;;;;;;4961045;28;25055;-68
2024/01/31 10:02:32;;;;;;;43.13;23.27;;;;;;;;;;4964248;28;25066;-67
2024/01/31 10:04:58;;;;;;;44.25;23.40;;;;;;;;;;4968280;28;25105;-63
2024/01/31 10:07:24;;;;;;;41.58;23.00;;;;;;;;;;4967696;28;25135;-65
2024/01/31 10:09:52;;;;;;;51.08;26.10;;;;;;;;;;4967790;28;25051;-64
2024/01/31 10:12:20;;;;;;;49.17;26.50;;;;;;;;;;4964447;28;25089;-67
2024/01/31 10:14:48;;;;;;;50.90;24.58;;;;;;;;;;4961229;28;25088;-66
2024/01/31 10:17:14;;;;;;;50.55;26.05;;;;;;;;;;4966672;28;25098;-66
2024/01/31 10:19:40;;;;;;;52.50;26.83;;;;;;;;;;4968334;28;25079;-66
2024/01/31 10:22:06;;;;;;;47.00;25.55;;;;;;;;;;4969748;28;25145;-65
2024/01/31 10:24:32;;;;;;;58.17;26.50;;;;;;;;;;4951791;28;25058;-66
2024/01/31 10:26:59;;;;;;;47.95;25.23;;;;;;;;;;4967401;28;25140;-66
2024/01/31 10:29:25;;;;;;;39.60;23.73;;;;;;;;;;4969041;28;25060;-66
2024/01/31 10:31:52;;;;;;;49.47;25.48;;;;;;;;;;4977832;28;25071;-67
2024/01/31 10:34:18;;;;;;;41.28;23.42;;;;;;;;;;4967250;28;25228;-67
2024/01/31 10:36:45;;;;;;;44.80;23.83;;;;;;;;;;4968826;28;25077;-67
2024/01/31 10:39:11;;;;;;;44.45;23.73;;;;;;;;;;4989367;28;25100;-66
2024/01/31 10:41:38;;;;;;;34.25;21.15;;;;;;;;;;4983882;28;25177;-66
2024/01/31 10:44:04;;;;;;;38.00;22.77;;;;;;;;;;4967919;28;25076;-68
2024/01/31 10:46:30;;;;;;;35.17;21.08;;;;;;;;;;4972997;28;25053;-66
2024/01/31 10:48:56;;;;;;;41.83;21.35;;;;;;;;;;4972384;28;25092;-69
2024/01/31 10:51:23;;;;;;;33.22;19.65;;;;;;;;;;4976786;28;25071;-67
2024/01/31 10:53:50;;;;;;;40.78;21.48;;;;;;;;;;4966214;28;25078;-70
2024/01/31 10:56:17;;;;;;;35.90;19.90;;;;;;;;;;4965643;28;25070;-67
2024/01/31 10:58:43;;;;;;;28.58;19.63;;;;;;;;;;4965495;28;25150;-67
2024/01/31 11:01:12;;;;;;;27.30;18.55;;;;;;;;;;4989781;28;25062;-67
2024/01/31 11:03:38;;;;;;;27.55;18.00;;;;;;;;;;4964585;28;25051;-67
2024/01/31 11:06:04;;;;;;;35.35;19.73;;;;;;;;;;4980906;28;25074;-65
2024/01/31 11:08:30;;;;;;;31.08;19.83;;;;;;;;;;4967145;28;25074;-66
2024/01/31 11:10:56;;;;;;;41.70;21.05;;;;;;;;;;4967377;28;25074;-65
2024/01/31 11:13:22;;;;;;;31.33;19.23;;;;;;;;;;4972203;28;25065;-66
2024/01/31 11:15:48;;;;;;;32.13;19.25;;;;;;;;;;4964262;28;25116;-65
2024/01/31 11:18:15;;;;;;;30.40;18.77;;;;;;;;;;4966291;28;25059;-65
2024/01/31 11:20:41;;;;;;;28.58;18.50;;;;;;;;;;4964721;28;25066;-68
2024/01/31 11:23:07;;;;;;;27.65;16.02;;;;;;;;;;4983172;28;25055;-65
2024/01/31 11:25:34;;;;;;;26.70;15.10;;;;;;;;;;4966343;28;25150;-65
2024/01/31 11:28:00;;;;;;;28.88;17.23;;;;;;;;;;4973674;28;25070;-61
2024/01/31 11:30:26;;;;;;;22.15;15.65;;;;;;;;;;4971689;28;25064;-65
2024/01/31 11:32:52;;;;;;;22.70;15.15;;;;;;;;;;4966364;28;25054;-65
2024/01/31 11:35:18;;;;;;;21.08;14.23;;;;;;;;;;4966114;28;25094;-64
2024/01/31 11:37:44;;;;;;;21.85;14.15;;;;;;;;;;4964920;28;25052;-65
2024/01/31 11:40:11;;;;;;;21.42;13.75;;;;;;;;;;4970350;28;25051;-67
2024/01/31 11:42:37;;;;;;;22.88;14.15;;;;;;;;;;4986196;28;25108;-68
2024/01/31 11:45:03;;;;;;;20.65;14.98;;;;;;;;;;4970569;28;25085;-68
2024/01/31 11:47:29;;;;;;;18.17;13.50;;;;;;;;;;4974310;28;25053;-68
2024/01/31 11:50:02;;;;;;;20.98;13.98;;;;;;;;;;4967204;28;25069;-66
2024/01/31 11:52:28;;;;;;;15.60;12.27;;;;;;;;;;4963371;28;25061;-66
2024/01/31 11:54:54;;;;;;;21.55;14.40;;;;;;;;;;4968883;28;25063;-67
2024/01/31 11:57:20;;;;;;;24.48;14.90;;;;;;;;;;4970823;28;25074;-66
2024/01/31 11:59:46;;;;;;;16.98;13.00;;;;;;;;;;4966735;28;25024;-68
2024/01/31 12:02:12;;;;;;;19.50;12.55;;;;;;;;;;4951535;28;25129;-66
2024/01/31 12:04:38;;;;;;;20.38;13.25;;;;;;;;;;4948088;28;25128;-68
2024/01/31 12:07:05;;;;;;;20.02;11.43;;;;;;;;;;4958132;28;25068;-66
2024/01/31 12:09:32;;;;;;;17.20;11.80;;;;;;;;;;4952943;28;25062;-65
2024/01/31 12:11:59;;;;;;;13.32;10.77;;;;;;;;;;4950161;28;25076;-68
2024/01/31 12:14:25;;;;;;;13.93;11.20;;;;;;;;;;4950353;28;25096;-68
2024/01/31 12:16:51;;;;;;;12.73;10.52;;;;;;;;;;4966616;28;25073;-67
2024/01/31 12:19:20;;;;;;;11.20;9.10;;;;;;;;;;4953962;28;25085;-65
2024/01/31 12:21:46;;;;;;;11.85;9.35;;;;;;;;;;4984583;28;25087;-69
2024/01/31 12:24:12;;;;;;;13.98;9.35;;;;;;;;;;4969320;28;25152;-68
2024/01/31 12:26:38;;;;;;;11.77;9.15;;;;;;;;;;4968683;28;25080;-68
2024/01/31 12:29:04;;;;;;;12.23;8.23;;;;;;;;;;4971888;28;25060;-65
2024/01/31 12:31:30;;;;;;;11.48;8.02;;;;;;;;;;4975509;28;25158;-67
2024/01/31 12:33:56;;;;;;;10.35;7.10;;;;;;;;;;4969455;28;26204;-65
2024/01/31 12:36:22;;;;;;;13.35;7.43;;;;;;;;;;4969297;28;25112;-68
2024/01/31 12:38:48;;;;;;;17.35;6.95;;;;;;;;;;4968314;28;25112;-67
2024/01/31 12:41:14;;;;;;;11.20;6.90;;;;;;;;;;4992305;28;25067;-65
2024/01/31 12:43:40;;;;;;;11.95;6.07;;;;;;;;;;4970514;28;25088;-68
2024/01/31 12:46:06;;;;;;;11.60;6.25;;;;;;;;;;4986926;28;25061;-67
2024/01/31 12:48:32;;;;;;;10.48;5.32;;;;;;;;;;4971745;28;25134;-67
2024/01/31 12:50:58;;;;;;;6.70;4.72;;;;;;;;;;4969485;28;25056;-66
2024/01/31 12:53:24;;;;;;;13.35;5.78;;;;;;;;;;4970213;28;25060;-64
2024/01/31 12:55:50;;;;;;;9.93;4.82;;;;;;;;;;4970333;28;25124;-65
2024/01/31 12:58:17;;;;;;;11.60;5.68;;;;;;;;;;4969876;28;25097;-66
2024/01/31 13:00:43;;;;;;;8.52;5.47;;;;;;;;;;4991154;28;25076;-67
2024/01/31 13:03:09;;;;;;;8.95;5.20;;;;;;;;;;4972948;28;25064;-69
2024/01/31 13:05:35;;;;;;;9.70;4.93;;;;;;;;;;4973583;28;25074;-66
2024/01/31 13:08:01;;;;;;;10.82;5.13;;;;;;;;;;4970374;28;25147;-66
2024/01/31 13:10:27;;;;;;;8.95;5.10;;;;;;;;;;4972352;28;25063;-69
2024/01/31 13:12:53;;;;;;;9.07;4.70;;;;;;;;;;4969088;28;25161;-64
2024/01/31 13:15:20;;;;;;;7.80;3.83;;;;;;;;;;4967224;28;25060;-66
2024/01/31 13:17:46;;;;;;;8.73;4.38;;;;;;;;;;4966230;28;25068;-69
2024/01/31 13:20:13;;;;;;;11.70;4.00;;;;;;;;;;4968567;28;25286;-66
2024/01/31 13:22:39;;;;;;;8.50;3.85;;;;;;;;;;4982656;28;25053;-70
2024/01/31 13:25:05;;;;;;;10.02;4.43;;;;;;;;;;4969132;28;25071;-66
2024/01/31 13:27:31;;;;;;;6.82;3.20;;;;;;;;;;4969003;28;25108;-66
2024/01/31 13:29:57;;;;;;;7.03;3.33;;;;;;;;;;4969270;28;25077;-66
2024/01/31 13:32:23;;;;;;;8.98;3.67;;;;;;;;;;4966958;28;25053;-64
2024/01/31 13:34:49;;;;;;;12.82;4.05;;;;;;;;;;4965049;28;25065;-67
2024/01/31 13:37:15;;;;;;;7.80;3.30;;;;;;;;;;4965204;28;25057;-66
2024/01/31 13:39:41;;;;;;;6.65;2.85;;;;;;;;;;4971359;28;25045;-68
2024/01/31 13:42:07;;;;;;;6.75;2.95;;;;;;;;;;4967960;28;25086;-68
2024/01/31 13:44:35;;;;;;;6.35;3.53;;;;;;;;;;4968237;28;25082;-67
2024/01/31 13:47:01;;;;;;;8.63;2.90;;;;;;;;;;4967861;28;25142;-67
2024/01/31 13:49:28;;;;;;;7.38;3.45;;;;;;;;;;4967744;28;25060;-65
2024/01/31 13:51:54;;;;;;;10.77;3.72;;;;;;;;;;4968805;28;25076;-68
2024/01/31 13:54:20;;;;;;;6.28;2.97;;;;;;;;;;4974390;28;25068;-66
2024/01/31 13:56:46;;;;;;;12.45;4.15;;;;;;;;;;4969790;28;25074;-72
2024/01/31 13:59:12;;;;;;;9.52;3.42;;;;;;;;;;4960386;28;25076;-69
2024/01/31 14:01:38;;;;;;;6.88;3.38;;;;;;;;;;4951673;28;25046;-66
2024/01/31 14:04:05;;;;;;;8.25;3.80;;;;;;;;;;4966429;28;25099;-64
2024/01/31 14:06:31;;;;;;;6.88;3.05;;;;;;;;;;4968264;28;25060;-65
2024/01/31 14:08:58;;;;;;;6.80;3.05;;;;;;;;;;4971787;28;25103;-67
2024/01/31 14:11:28;;;;;;;12.82;3.05;;;;;;;;;;4979412;28;25058;-68
2024/01/31 14:13:54;;;;;;;6.03;2.92;;;;;;;;;;4972702;28;25050;-66
2024/01/31 14:16:20;;;;;;;6.45;3.33;;;;;;;;;;4969207;28;25052;-68
2024/01/31 14:18:46;;;;;;;8.80;3.10;;;;;;;;;;4974046;28;25067;-65
2024/01/31 14:21:15;;;;;;;9.15;3.35;;;;;;;;;;4969178;28;25067;-66